地図

経路データ

SID SEASON NUMBER BASIN SUBBASIN NAME ISO_TIME NATURE LAT LON WMO_WIND WMO_PRES WMO_AGENCY TRACK_TYPE DIST2LAND LANDFALL IFLAG USA_AGENCY USA_ATCF_ID USA_LAT USA_LON USA_RECORD USA_STATUS USA_WIND USA_PRES USA_SSHS USA_R34_NE USA_R34_SE USA_R34_SW USA_R34_NW USA_R50_NE USA_R50_SE USA_R50_SW USA_R50_NW USA_R64_NE USA_R64_SE USA_R64_SW USA_R64_NW USA_POCI USA_ROCI USA_RMW USA_EYE TOKYO_LAT TOKYO_LON TOKYO_GRADE TOKYO_WIND TOKYO_PRES TOKYO_R50_DIR TOKYO_R50_LONG TOKYO_R50_SHORT TOKYO_R30_DIR TOKYO_R30_LONG TOKYO_R30_SHORT TOKYO_LAND CMA_LAT CMA_LON CMA_CAT CMA_WIND CMA_PRES HKO_LAT HKO_LON HKO_CAT HKO_WIND HKO_PRES NEWDELHI_LAT NEWDELHI_LON NEWDELHI_GRADE NEWDELHI_WIND NEWDELHI_PRES NEWDELHI_CI NEWDELHI_DP NEWDELHI_POCI REUNION_LAT REUNION_LON REUNION_TYPE REUNION_WIND REUNION_PRES REUNION_TNUM REUNION_CI REUNION_RMW REUNION_R34_NE REUNION_R34_SE REUNION_R34_SW REUNION_R34_NW REUNION_R50_NE REUNION_R50_SE REUNION_R50_SW REUNION_R50_NW REUNION_R64_NE REUNION_R64_SE REUNION_R64_SW REUNION_R64_NW BOM_LAT BOM_LON BOM_TYPE BOM_WIND BOM_PRES BOM_TNUM BOM_CI BOM_RMW BOM_R34_NE BOM_R34_SE BOM_R34_SW BOM_R34_NW BOM_R50_NE BOM_R50_SE BOM_R50_SW BOM_R50_NW BOM_R64_NE BOM_R64_SE BOM_R64_SW BOM_R64_NW BOM_ROCI BOM_POCI BOM_EYE BOM_POS_METHOD BOM_PRES_METHOD NADI_LAT NADI_LON NADI_CAT NADI_WIND NADI_PRES WELLINGTON_LAT WELLINGTON_LON WELLINGTON_WIND WELLINGTON_PRES DS824_LAT DS824_LON DS824_STAGE DS824_WIND DS824_PRES TD9636_LAT TD9636_LON TD9636_STAGE TD9636_WIND TD9636_PRES TD9635_LAT TD9635_LON TD9635_WIND TD9635_PRES TD9635_ROCI NEUMANN_LAT NEUMANN_LON NEUMANN_CLASS NEUMANN_WIND NEUMANN_PRES MLC_LAT MLC_LON MLC_CLASS MLC_WIND MLC_PRES USA_GUST BOM_GUST BOM_GUST_PER REUNION_GUST REUNION_GUST_PER USA_SEAHGT USA_SEARAD_NE USA_SEARAD_SE USA_SEARAD_SW USA_SEARAD_NW STORM_SPEED STORM_DIR
1911013S15139 1911 3 SP EA NOT_NAMED 1911-01-12 23:00:00 NR -14.7000 138.900 main 209 209 __________O___ -1 -14.7000 138.900 7 3 140
1911013S15139 1911 3 SP EA NOT_NAMED 1911-01-13 00:00:00 NR -14.7428 138.930 main 209 201 __________P___ -1 -14.7428 138.930 7 3 145
1911013S15139 1911 3 SP EA NOT_NAMED 1911-01-13 03:00:00 NR -14.8707 139.020 main 201 201 __________P___ -1 -14.8707 139.020 7 3 147
1911013S15139 1911 3 SP EA NOT_NAMED 1911-01-13 06:00:00 NR -14.9968 139.101 main 201 194 __________P___ -1 -14.9968 139.101 7 3 150
1911013S15139 1911 3 SP EA NOT_NAMED 1911-01-13 09:00:00 NR -15.1201 139.167 main 200 190 __________P___ -1 -15.1201 139.167 7 3 155
1911013S15139 1911 3 SP EA NOT_NAMED 1911-01-13 11:00:00 NR -15.2000 139.200 main 190 190 __________O___ -1 -15.2000 139.200 7 3 162
1911013S15139 1911 3 SP EA NOT_NAMED 1911-01-13 12:00:00 NR -15.2392 139.213 main 190 179 __________P___ -1 -15.2392 139.213 7 2 163
1911013S15139 1911 3 SP EA NOT_NAMED 1911-01-13 15:00:00 NR -15.3558 139.238 main 169 159 __________P___ -1 -15.3558 139.238 7 2 169
1911013S15139 1911 3 SP EA NOT_NAMED 1911-01-13 18:00:00 NR -15.4757 139.256 main 159 148 __________P___ -1 -15.4757 139.256 7 3 170
1911013S15139 1911 3 SP EA NOT_NAMED 1911-01-13 21:00:00 NR -15.6052 139.277 main 148 138 __________P___ -1 -15.6052 139.277 7 3 171
1911013S15139 1911 3 SP EA NOT_NAMED 1911-01-13 23:00:00 NR -15.7000 139.300 main 138 138 __________O___ -1 -15.7000 139.300 7 3 164
1911013S15139 1911 3 SP EA NOT_NAMED 1911-01-14 00:00:00 NR -15.7529 139.324 main 127 119 __________P___ -1 -15.7529 139.324 7 4 154
1911013S15139 1911 3 SP EA NOT_NAMED 1911-01-14 03:00:00 NR -15.9230 139.411 main 119 104 __________P___ -1 -15.9230 139.411 7 4 154
1911013S15139 1911 3 SP EA NOT_NAMED 1911-01-14 06:00:00 NR -16.1031 139.501 main 104 89 __________P___ -1 -16.1031 139.501 7 4 157
1911013S15139 1911 3 SP EA NOT_NAMED 1911-01-14 09:00:00 NR -16.2838 139.573 main 89 79 __________P___ -1 -16.2838 139.573 7 4 162
1911013S15139 1911 3 SP EA NOT_NAMED 1911-01-14 11:00:00 NR -16.4000 139.600 main 79 79 __________O___ -1 -16.4000 139.600 7 3 0
1911013S15139 1911 3 SP EA NOT_NAMED 1911-01-14 12:00:00 NR -16.4533 139.600 main 70 61 __________P___ -1 -16.4533 139.600 7 3 187
1911013S15139 1911 3 SP EA NOT_NAMED 1911-01-14 15:00:00 NR -16.6079 139.573 main 61 46 __________P___ -1 -16.6079 139.573 7 3 195
1911013S15139 1911 3 SP EA NOT_NAMED 1911-01-14 18:00:00 NR -16.7566 139.517 main 38 33 __________P___ -1 -16.7566 139.517 7 3 201
1911013S15139 1911 3 SP EA NOT_NAMED 1911-01-14 21:00:00 NR -16.9026 139.447 main 24 21 __________P___ -1 -16.9026 139.447 7 3 205
1911013S15139 1911 3 SP EA NOT_NAMED 1911-01-14 23:00:00 NR -17.0000 139.400 main 21 21 __________O___ -1 -17.0000 139.400 7 3 204
1911013S15139 1911 3 SP EA NOT_NAMED 1911-01-15 00:00:00 NR -17.0512 139.381 main 21 10 __________P___ -1 -17.0512 139.381 7 3 201
1911013S15139 1911 3 SP EA NOT_NAMED 1911-01-15 03:00:00 NR -17.2054 139.323 main 10 10 __________P___ -1 -17.2054 139.323 7 3 199
1911013S15139 1911 3 SP EA NOT_NAMED 1911-01-15 06:00:00 NR -17.3580 139.267 main 0 0 __________P___ -1 -17.3580 139.267 7 3 198
1911013S15139 1911 3 SP EA NOT_NAMED 1911-01-15 09:00:00 NR -17.5057 139.222 main 0 0 __________P___ -1 -17.5057 139.222 7 3 195
1911013S15139 1911 3 SP EA NOT_NAMED 1911-01-15 11:00:00 NR -17.6000 139.200 main 0 0 __________O___ -1 -17.6000 139.200 7 3 193
1911013S15139 1911 3 SP EA NOT_NAMED 1911-01-15 12:00:00 NR -17.6499 139.191 main 0 0 __________P___ -1 -17.6499 139.191 7 3 187
1911013S15139 1911 3 SP EA NOT_NAMED 1911-01-15 15:00:00 NR -17.7963 139.173 main 0 0 __________P___ -1 -17.7963 139.173 7 3 0
1911013S15139 1911 3 SP EA NOT_NAMED 1911-01-15 18:00:00 NR -17.9301 139.171 main 0 0 __________P___ -1 -17.9301 139.171 7 2 174
1911013S15139 1911 3 SP EA NOT_NAMED 1911-01-15 21:00:00 NR -18.0421 139.183 main 0 0 __________P___ -1 -18.0421 139.183 7 2 0
1911013S15139 1911 3 SP EA NOT_NAMED 1911-01-15 23:00:00 NR -18.1000 139.200 main 0 0 __________O___ -1 -18.1000 139.200 7 2 0
1911013S15139 1911 3 SP EA NOT_NAMED 1911-01-16 00:00:00 NR -18.1217 139.210 main 0 0 __________P___ -1 -18.1217 139.210 7 1 145
1911013S15139 1911 3 SP EA NOT_NAMED 1911-01-16 03:00:00 NR -18.1649 139.251 main 0 0 __________P___ -1 -18.1649 139.251 7 1 124
1911013S15139 1911 3 SP EA NOT_NAMED 1911-01-16 06:00:00 NR -18.1848 139.303 main 0 0 __________P___ -1 -18.1848 139.303 7 1 105
1911013S15139 1911 3 SP EA NOT_NAMED 1911-01-16 09:00:00 NR -18.1938 139.361 main 0 0 __________P___ -1 -18.1938 139.361 7 1 100
1911013S15139 1911 3 SP EA NOT_NAMED 1911-01-16 11:00:00 NR -18.2000 139.400 main 0 0 __________O___ -1 -18.2000 139.400 7 1 105
1911013S15139 1911 3 SP EA NOT_NAMED 1911-01-16 12:00:00 NR -18.2083 139.414 main 0 0 __________P___ -1 -18.2083 139.414 7 1 119
1911013S15139 1911 3 SP EA NOT_NAMED 1911-01-16 15:00:00 NR -18.2333 139.456 main 0 0 __________P___ -1 -18.2333 139.456 7 1 121
1911013S15139 1911 3 SP EA NOT_NAMED 1911-01-16 18:00:00 NR -18.2583 139.501 main 0 0 __________P___ -1 -18.2583 139.501 7 1 117
1911013S15139 1911 3 SP EA NOT_NAMED 1911-01-16 21:00:00 NR -18.2833 139.555 main 0 0 __________P___ -1 -18.2833 139.555 7 1 113
1911013S15139 1911 3 SP EA NOT_NAMED 1911-01-16 23:00:00 NR -18.3000 139.600 main 0 0 __________O___ -1 -18.3000 139.600 7 1 110
1911013S15139 1911 3 SP EA NOT_NAMED 1911-01-17 00:00:00 NR -18.3071 139.628 main 0 0 __________P___ -1 -18.3071 139.628 7 2 104
1911013S15139 1911 3 SP EA NOT_NAMED 1911-01-17 03:00:00 NR -18.3279 139.723 main 0 0 __________P___ -1 -18.3279 139.723 7 2 103
1911013S15139 1911 3 SP EA NOT_NAMED 1911-01-17 06:00:00 NR -18.3504 139.828 main 0 0 __________P___ -1 -18.3504 139.828 7 2 104
1911013S15139 1911 3 SP EA NOT_NAMED 1911-01-17 09:00:00 NR -18.3776 139.934 main 0 0 __________P___ -1 -18.3776 139.934 7 2 107
1911013S15139 1911 3 SP EA NOT_NAMED 1911-01-17 11:00:00 NR -18.4000 140.000 main 0 0 __________O___ -1 -18.4000 140.000 7 2 112
1911013S15139 1911 3 SP EA NOT_NAMED 1911-01-17 12:00:00 NR -18.4133 140.028 main 0 0 __________P___ -1 -18.4133 140.028 7 2 120
1911013S15139 1911 3 SP EA NOT_NAMED 1911-01-17 15:00:00 NR -18.4587 140.108 main 0 0 __________P___ -1 -18.4587 140.108 7 2 123
1911013S15139 1911 3 SP EA NOT_NAMED 1911-01-17 18:00:00 NR -18.5100 140.182 main 0 0 __________P___ -1 -18.5100 140.182 7 2 128
1911013S15139 1911 3 SP EA NOT_NAMED 1911-01-17 21:00:00 NR -18.5640 140.253 main 0 0 __________P___ -1 -18.5640 140.253 7 2 129
1911013S15139 1911 3 SP EA NOT_NAMED 1911-01-17 23:00:00 NR -18.6000 140.300 main 0 0 __________O___ -1 -18.6000 140.300 7 2 127
1911013S15139 1911 3 SP EA NOT_NAMED 1911-01-18 00:00:00 NR -18.6167 140.325 main 0 0 __________P___ -1 -18.6167 140.325 7 2 124
1911013S15139 1911 3 SP EA NOT_NAMED 1911-01-18 03:00:00 NR -18.6667 140.400 main 0 0 __________P___ -1 -18.6667 140.400 7 2 125
1911013S15139 1911 3 SP EA NOT_NAMED 1911-01-18 06:00:00 NR -18.7167 140.475 main 0 0 __________P___ -1 -18.7167 140.475 7 2 125
1911013S15139 1911 3 SP EA NOT_NAMED 1911-01-18 09:00:00 NR -18.7667 140.550 main 0 0 __________P___ -1 -18.7667 140.550 7 2 126
1911013S15139 1911 3 SP EA NOT_NAMED 1911-01-18 11:00:00 NR -18.8000 140.600 main 0 0 __________O___ -1 -18.8000 140.600 7 2 128
1911013S15139 1911 3 SP EA NOT_NAMED 1911-01-18 12:00:00 NR -18.8153 140.610 main 0 0 __________P___ -1 -18.8153 140.610 7 1 153
1911013S15139 1911 3 SP EA NOT_NAMED 1911-01-18 15:00:00 NR -18.8608 140.635 main 0 0 __________P___ -1 -18.8608 140.635 7 1 141
1911013S15139 1911 3 SP EA NOT_NAMED 1911-01-18 18:00:00 NR -18.9081 140.680 main 0 0 __________P___ -1 -18.9081 140.680 7 2 126
1911013S15139 1911 3 SP EA NOT_NAMED 1911-01-18 21:00:00 NR -18.9606 140.782 main 0 0 __________P___ -1 -18.9606 140.782 7 3 114
1911013S15139 1911 3 SP EA NOT_NAMED 1911-01-18 23:00:00 NR -19.0000 140.900 main 0 0 __________O___ -1 -19.0000 140.900 7 4 109
1911013S15139 1911 3 SP EA NOT_NAMED 1911-01-19 00:00:00 NR -19.0267 140.983 main 0 0 __________P___ -1 -19.0267 140.983 7 6 107
1911013S15139 1911 3 SP EA NOT_NAMED 1911-01-19 03:00:00 NR -19.1142 141.299 main 0 0 __________P___ -1 -19.1142 141.299 7 7 105
1911013S15139 1911 3 SP EA NOT_NAMED 1911-01-19 06:00:00 NR -19.2006 141.687 main 0 0 __________P___ -1 -19.2006 141.687 7 8 101
1911013S15139 1911 3 SP EA NOT_NAMED 1911-01-19 09:00:00 NR -19.2704 142.113 main 0 0 __________P___ -1 -19.2704 142.113 7 8 98
1911013S15139 1911 3 SP EA NOT_NAMED 1911-01-19 11:00:00 NR -19.3000 142.400 main 0 0 __________O___ -1 -19.3000 142.400 7 8 91
1911013S15139 1911 3 SP EA NOT_NAMED 1911-01-19 12:00:00 NR -19.2803 142.528 main 0 0 __________P___ -1 -19.2803 142.528 7 8 77
1911013S15139 1911 3 SP EA NOT_NAMED 1911-01-19 15:00:00 NR -19.1893 142.917 main 0 0 __________P___ -1 -19.1893 142.917 7 8 77
1911013S15139 1911 3 SP EA NOT_NAMED 1911-01-19 18:00:00 NR -19.1084 143.314 main 0 0 __________P___ -1 -19.1084 143.314 7 8 84
1911013S15139 1911 3 SP EA NOT_NAMED 1911-01-19 21:00:00 NR -19.1127 143.721 main 0 0 __________P___ -1 -19.1127 143.721 7 8 98
1911013S15139 1911 3 SP EA NOT_NAMED 1911-01-19 23:00:00 NR -19.2000 144.000 main 0 0 __________O___ -1 -19.2000 144.000 7 9 113
1911013S15139 1911 3 SP EA NOT_NAMED 1911-01-20 00:00:00 NR -19.2841 144.157 main 0 0 __________P___ -1 -19.2841 144.157 7 11 126
1911013S15139 1911 3 SP EA NOT_NAMED 1911-01-20 03:00:00 NR -19.6435 144.647 main 0 0 __________P___ -1 -19.6435 144.647 7 13 133
1911013S15139 1911 3 SP EA NOT_NAMED 1911-01-20 06:00:00 NR -20.1292 145.130 main 0 0 __________P___ -1 -20.1292 145.130 7 14 141
1911013S15139 1911 3 SP EA NOT_NAMED 1911-01-20 09:00:00 NR -20.6971 145.562 main 0 0 __________P___ -1 -20.6971 145.562 7 14 147
1911013S15139 1911 3 SP EA NOT_NAMED 1911-01-20 11:00:00 NR -21.1000 145.800 main 0 0 __________O___ -1 -21.1000 145.800 7 14 153
1911013S15139 1911 3 SP EA NOT_NAMED 1911-01-20 12:00:00 NR -21.3100 145.894 main 0 0 __________P___ -1 -21.3100 145.894 7 14 162
1911013S15139 1911 3 SP EA NOT_NAMED 1911-01-20 15:00:00 NR -21.9828 146.112 main 0 0 __________P___ -1 -21.9828 146.112 7 14 166
1911013S15139 1911 3 SP EA NOT_NAMED 1911-01-20 18:00:00 NR -22.6612 146.254 main 0 0 __________P___ -1 -22.6612 146.254 7 13 170
1911013S15139 1911 3 SP EA NOT_NAMED 1911-01-20 21:00:00 NR -23.2701 146.349 main 0 0 __________P___ -1 -23.2701 146.349 7 11 172
1911013S15139 1911 3 SP EA NOT_NAMED 1911-01-20 23:00:00 NR -23.6000 146.400 main 0 0 __________O___ -1 -23.6000 146.400 7 9 170
1911013S15139 1911 3 SP EA NOT_NAMED 1911-01-21 00:00:00 NR -23.7174 146.434 main 0 0 __________P___ -1 -23.7174 146.434 7 6 164
1911013S15139 1911 3 SP EA NOT_NAMED 1911-01-21 03:00:00 NR -23.9699 146.519 main 0 0 __________P___ -1 -23.9699 146.519 7 4 161
1911013S15139 1911 3 SP EA NOT_NAMED 1911-01-21 06:00:00 NR -24.1192 146.588 main 0 0 __________P___ -1 -24.1192 146.588 7 3 156
1911013S15139 1911 3 SP EA NOT_NAMED 1911-01-21 09:00:00 NR -24.2247 146.653 main 0 0 __________P___ -1 -24.2247 146.653 7 3 150
1911013S15139 1911 3 SP EA NOT_NAMED 1911-01-21 11:00:00 NR -24.3000 146.700 main 0 0 __________O___ -1 -24.3000 146.700 7 3 152
1911013S15139 1911 3 SP EA NOT_NAMED 1911-01-21 12:00:00 NR -24.3350 146.721 main 0 0 __________P___ -1 -24.3350 146.721 7 2 151
1911013S15139 1911 3 SP EA NOT_NAMED 1911-01-21 15:00:00 NR -24.4336 146.784 main 0 0 __________P___ -1 -24.4336 146.784 7 3 152
1911013S15139 1911 3 SP EA NOT_NAMED 1911-01-21 18:00:00 NR -24.5765 146.866 main 0 0 __________P___ -1 -24.5765 146.866 7 4 155
1911013S15139 1911 3 SP EA NOT_NAMED 1911-01-21 21:00:00 NR -24.8325 146.987 main 0 0 __________P___ -1 -24.8325 146.987 7 7 158
1911013S15139 1911 3 SP EA NOT_NAMED 1911-01-21 23:00:00 NR -25.1000 147.100 main 0 0 __________O___ -1 -25.1000 147.100 7 9 157
1911013S15139 1911 3 SP EA NOT_NAMED 1911-01-22 00:00:00 NR -25.2608 147.191 main 0 0 __________P___ -1 -25.2608 147.191 7 13 154
1911013S15139 1911 3 SP EA NOT_NAMED 1911-01-22 03:00:00 NR -25.8610 147.518 main 0 0 __________P___ -1 -25.8610 147.518 7 15 156
1911013S15139 1911 3 SP EA NOT_NAMED 1911-01-22 06:00:00 NR -26.6227 147.867 main 0 0 __________P___ -1 -26.6227 147.867 7 18 161
1911013S15139 1911 3 SP EA NOT_NAMED 1911-01-22 09:00:00 NR -27.5269 148.166 main 0 0 __________P___ -1 -27.5269 148.166 7 20 166
1911013S15139 1911 3 SP EA NOT_NAMED 1911-01-22 11:00:00 NR -28.2000 148.300 main 0 0 __________O___ -1 -28.2000 148.300 7 21 172
1911013S15139 1911 3 SP EA NOT_NAMED 1911-01-22 12:00:00 NR -28.5556 148.339 main 0 0 __________P___ -1 -28.5556 148.339 7 22 178
1911013S15139 1911 3 SP EA NOT_NAMED 1911-01-22 15:00:00 NR -29.6877 148.353 main 0 0 __________P___ -1 -29.6877 148.353 7 24 182
1911013S15139 1911 3 SP EA NOT_NAMED 1911-01-22 18:00:00 NR -30.8959 148.243 main 0 0 __________P___ -1 -30.8959 148.243 7 25 186
1911013S15139 1911 3 SP EA NOT_NAMED 1911-01-22 21:00:00 NR -32.1514 148.051 main 0 0 __________P___ -1 -32.1514 148.051 7 26 188
1911013S15139 1911 3 SP EA NOT_NAMED 1911-01-22 23:00:00 NR -33.0000 147.900 main 0 __________O___ -1 -33.0000 147.900 7 26 188

デジタル台風データ・検索

IBTrACS Databaseについて

本データベースは、米国NOAAが公開する1842年以降の世界の熱帯低気圧のベストトラックデータアーカイブInternational Best Track Archive for Climate Stewardship (IBTrACS)を、ウェブで閲覧しやすい形式に変換したものです。

最終更新日:2021-12-08